Time;durP1;ratioP1;P1;durP2;ratioP2;P2;SDS_P1;SDS_P2;PMS_P1;PMS_P2;Temp;Humidity;BMP_temperature;BMP_pressure;BME280_temperature;BME280_humidity;BME280_pressure;Samples;Min_cycle;Max_cycle;Signal;HPM_P1;HPM_P2
2022/08/20 00:00:12;;;;;;;;;3.50;3.00;;;;;19.62;74.04;101324.19;5107580;27;45179;-91
2022/08/20 00:02:44;;;;;;;;;2.25;2.25;;;;;19.47;74.61;101306.28;5092283;27;45292;-90
2022/08/20 00:05:10;;;;;;;;;2.00;1.75;;;;;19.43;74.24;101309.81;5108477;27;45809;-92
2022/08/20 00:07:36;;;;;;;;;3.00;3.00;;;;;19.26;74.18;101287.44;5092229;27;45019;-90
2022/08/20 00:10:02;;;;;;;;;2.00;1.00;;;;;19.29;74.38;101308.81;5092628;28;45094;-91
2022/08/20 00:12:28;;;;;;;;;3.00;3.00;;;;;19.08;74.48;101273.13;5089525;27;45158;-91
2022/08/20 00:14:53;;;;;;;;;2.00;2.00;;;;;18.99;74.83;101261.50;5092154;27;45204;-90
2022/08/20 00:17:19;;;;;;;;;3.75;2.00;;;;;19.20;74.76;101311.38;5092372;27;45154;-88
2022/08/20 00:19:44;;;;;;;;;2.00;1.00;;;;;18.91;75.06;101258.75;5092359;28;44918;-88
2022/08/20 00:22:09;;;;;;;;;2.25;2.00;;;;;19.00;74.75;101279.25;5107105;27;47455;-84
2022/08/20 00:24:35;;;;;;;;;2.00;2.00;;;;;19.03;75.28;101280.19;5092073;27;44843;-90
2022/08/20 00:27:01;;;;;;;;;4.00;3.00;;;;;18.95;75.31;101284.53;5090618;27;44818;-85
2022/08/20 00:29:27;;;;;;;;;2.75;2.25;;;;;18.91;75.46;101292.47;5092017;27;45147;-90
2022/08/20 00:31:52;;;;;;;;;3.00;3.00;;;;;18.97;75.36;101300.56;5107670;27;47416;-89
2022/08/20 00:34:18;;;;;;;;;4.50;2.75;;;;;19.04;75.50;101324.59;5092004;27;45031;-90
2022/08/20 00:36:43;;;;;;;;;2.00;2.00;;;;;18.79;75.32;101291.50;5107493;27;45088;-89
2022/08/20 00:39:09;;;;;;;;;1.25;1.25;;;;;18.87;76.04;101309.34;5092078;27;44908;-90
2022/08/20 00:41:34;;;;;;;;;2.00;2.00;;;;;18.82;75.86;101295.97;5088661;27;45982;-88
2022/08/20 00:44:18;;;;;;;;;4.00;4.00;;;;;18.92;75.40;101324.50;5107616;27;45573;-84
2022/08/20 00:46:44;;;;;;;;;2.00;2.00;;;;;18.92;75.76;101321.81;5091873;27;45036;-86
2022/08/20 00:49:16;;;;;;;;;3.00;3.00;;;;;18.67;75.53;101280.72;5092150;27;45157;-84
2022/08/20 00:51:51;;;;;;;;;2.00;2.00;;;;;18.88;75.93;101321.78;5106562;27;46684;-87
2022/08/20 00:54:22;;;;;;;;;4.75;3.25;;;;;18.83;75.41;101311.06;5090462;28;45705;-89
2022/08/20 00:57:04;;;;;;;;;2.00;1.75;;;;;18.72;75.75;101316.28;5090149;27;45348;-91
2022/08/20 00:59:36;;;;;;;;;3.50;3.50;;;;;18.76;75.83;101322.53;5107658;27;45152;-88
2022/08/20 01:02:04;;;;;;;;;3.00;2.50;;;;;18.73;75.88;101330.50;5089865;28;46840;-83
2022/08/20 01:04:33;;;;;;;;;3.00;3.00;;;;;18.68;76.23;101316.22;5090991;27;45136;-90
2022/08/20 01:06:59;;;;;;;;;3.50;3.00;;;;;18.71;76.26;101319.81;5091228;27;45044;-85
2022/08/20 01:09:24;;;;;;;;;3.50;3.00;;;;;18.55;76.42;101291.22;5091054;27;45032;-87
2022/08/20 01:11:50;;;;;;;;;3.00;3.00;;;;;18.67;76.45;101322.38;5088426;27;47371;-86
2022/08/20 01:17:04;;;;;;;;;4.00;4.00;;;;;18.63;76.42;101312.59;5094117;27;44976;-88
2022/08/20 01:19:40;;;;;;;;;4.00;4.00;;;;;18.61;76.50;101317.00;5095524;28;45103;-93
2022/08/20 01:23:25;;;;;;;;;3.50;3.00;;;;;18.59;76.28;101317.00;5095099;27;45518;-91
2022/08/20 01:25:03;;;;;;;;;3.75;3.00;;;;;18.40;77.01;101280.41;5094749;27;45137;-90
2022/08/20 01:27:30;;;;;;;;;3.00;2.00;;;;;18.47;76.44;101295.53;5093940;27;45015;-88
2022/08/20 01:29:56;;;;;;;;;4.50;3.50;;;;;18.44;76.64;101287.56;5110098;27;45068;-91
2022/08/20 01:32:21;;;;;;;;;3.75;3.25;;;;;18.47;76.79;101295.53;5110575;27;47111;-89
2022/08/20 01:34:47;;;;;;;;;3.00;2.00;;;;;18.45;77.32;101299.97;5092324;27;45351;-91
2022/08/20 01:37:12;;;;;;;;;3.00;2.75;;;;;18.36;77.59;101282.13;5094633;27;45068;-88
2022/08/20 01:39:37;;;;;;;;;2.50;2.00;;;;;18.31;77.22;101275.84;5094876;27;44821;-91
2022/08/20 01:42:12;;;;;;;;;6.00;4.25;;;;;18.61;77.40;101328.53;5092967;27;45423;-91
2022/08/20 01:44:41;;;;;;;;;2.50;2.00;;;;;18.52;77.57;101308.06;5094930;27;45137;-92
2022/08/20 01:47:17;;;;;;;;;2.00;2.00;;;;;18.69;77.36;101328.69;5091752;27;45635;-90
2022/08/20 01:49:48;;;;;;;;;3.25;2.00;;;;;18.68;77.36;101335.78;5093694;28;44964;-92
2022/08/20 01:52:23;;;;;;;;;2.50;2.50;;;;;18.63;77.01;101339.22;5094229;27;45521;-91
2022/08/20 01:54:48;;;;;;;;;3.50;3.00;;;;;18.53;77.42;101332.91;5108959;27;45518;-90
2022/08/20 01:57:17;;;;;;;;;4.00;3.00;;;;;18.48;77.39;101322.22;5107991;27;44930;-91
2022/08/20 01:59:43;;;;;;;;;3.00;2.00;;;;;18.65;76.96;101341.03;5094265;27;44984;-90
2022/08/20 02:02:11;;;;;;;;;2.25;2.00;;;;;18.45;77.13;101318.59;5093556;27;45401;-90
2022/08/20 02:04:37;;;;;;;;;3.25;2.75;;;;;18.47;77.28;101330.16;5110358;27;45117;-91
2022/08/20 02:07:05;;;;;;;;;3.00;3.00;;;;;18.45;77.46;101332.81;5092622;28;44982;-90
2022/08/20 02:09:36;;;;;;;;;3.00;2.50;;;;;18.34;77.35;101304.28;5110213;27;45211;-87
2022/08/20 02:12:04;;;;;;;;;3.00;3.00;;;;;18.43;77.36;101318.59;5091207;27;45418;-88
2022/08/20 02:14:31;;;;;;;;;3.50;3.00;;;;;18.38;77.44;101316.75;5091685;27;45583;-89
2022/08/20 02:16:57;;;;;;;;;2.75;2.50;;;;;18.58;77.69;101349.81;5094161;27;45050;-83
2022/08/20 02:19:34;;;;;;;;;2.75;2.75;;;;;18.43;76.87;101329.25;5093688;27;45012;-85
2022/08/20 02:22:16;;;;;;;;;3.50;3.00;;;;;18.37;76.90;101321.16;5090011;28;47112;-86
2022/08/20 02:24:43;;;;;;;;;2.50;2.50;;;;;18.31;77.07;101316.66;5106410;27;45368;-83
2022/08/20 02:27:08;;;;;;;;;2.75;2.75;;;;;18.30;77.50;101316.66;5091039;28;45075;-83
2022/08/20 02:29:33;;;;;;;;;3.25;2.75;;;;;18.09;77.52;101277.38;5092864;27;44992;-83
2022/08/20 02:31:59;;;;;;;;;2.50;2.00;;;;;18.23;76.88;101305.06;5093150;27;45535;-85
2022/08/20 02:34:24;;;;;;;;;4.50;3.75;;;;;18.23;77.63;101305.06;5092099;27;45105;-88
2022/08/20 02:36:51;;;;;;;;;3.25;3.25;;;;;18.19;77.37;101305.88;5091474;27;45119;-84
2022/08/20 02:39:16;;;;;;;;;3.75;3.75;;;;;18.19;77.37;101297.91;5092257;28;45195;-82
2022/08/20 02:41:42;;;;;;;;;2.00;2.00;;;;;18.30;77.26;101322.88;5108163;27;47627;-86
2022/08/20 02:44:07;;;;;;;;;2.00;2.00;;;;;17.94;77.03;101256.81;5092606;28;45403;-86
2022/08/20 02:46:34;;;;;;;;;5.00;4.00;;;;;18.10;76.96;101296.91;5093996;27;45127;-84
2022/08/20 02:48:59;;;;;;;;;3.75;3.75;;;;;18.36;76.93;101342.44;5093696;27;45019;-88
2022/08/20 02:51:25;;;;;;;;;4.00;3.00;;;;;18.33;77.01;101337.09;5093110;28;45241;-91
2022/08/20 02:53:50;;;;;;;;;4.00;3.00;;;;;18.31;76.95;101345.06;5093673;28;45208;-87
2022/08/20 02:56:16;;;;;;;;;2.25;2.25;;;;;18.13;76.78;101311.13;5088456;28;45327;-88
2022/08/20 02:58:42;;;;;;;;;3.75;3.00;;;;;18.00;77.30;101299.44;5092929;28;45050;-88
2022/08/20 03:01:12;;;;;;;;;2.75;2.25;;;;;18.22;77.03;101339.59;5093079;27;45539;-84
2022/08/20 03:03:41;;;;;;;;;3.75;3.75;;;;;18.08;77.18;101314.59;5109456;27;45506;-85
2022/08/20 03:06:09;;;;;;;;;2.75;2.75;;;;;18.01;77.23;101303.00;5108957;27;45051;-90
2022/08/20 03:08:35;;;;;;;;;2.75;2.75;;;;;18.30;77.43;101349.47;5093481;27;45020;-85
2022/08/20 03:11:00;;;;;;;;;3.00;3.00;;;;;18.31;77.07;101353.03;5090178;27;45693;-90
2022/08/20 03:13:26;;;;;;;;;3.50;2.50;;;;;18.29;76.82;101345.03;5093127;28;45118;-90
2022/08/20 03:15:55;;;;;;;;;3.00;3.00;;;;;17.99;76.81;101300.31;5092837;28;45220;-82
2022/08/20 03:18:21;;;;;;;;;2.75;1.75;;;;;18.17;76.84;101336.00;5108316;27;45223;-85
2022/08/20 03:20:48;;;;;;;;;2.75;2.75;;;;;18.03;77.03;101312.78;5089466;27;46028;-90
2022/08/20 03:23:14;;;;;;;;;3.00;3.00;;;;;18.12;76.74;101327.94;5091381;27;45245;-85
2022/08/20 03:25:40;;;;;;;;;3.00;3.00;;;;;18.16;76.58;101339.53;5106843;27;45155;-91
2022/08/20 03:28:06;;;;;;;;;4.00;3.00;;;;;18.14;76.43;101339.53;5093930;27;45056;-91
2022/08/20 03:30:31;;;;;;;;;2.75;2.00;;;;;18.08;76.56;101325.22;5093294;27;45746;-92
2022/08/20 03:32:57;;;;;;;;;3.25;3.00;;;;;18.15;76.74;101348.41;5109398;27;45199;-92
2022/08/20 03:35:26;;;;;;;;;3.25;2.50;;;;;17.67;76.89;101265.25;5091956;27;44917;-91
2022/08/20 03:37:51;;;;;;;;;3.25;2.75;;;;;18.03;76.20;101322.53;5093082;27;45119;-91
2022/08/20 03:40:30;;;;;;;;;2.75;2.25;;;;;17.87;76.43;101299.25;5091425;28;45460;-92
2022/08/20 03:42:57;;;;;;;;;3.00;3.00;;;;;18.09;76.53;101340.34;5093381;27;45763;-91
2022/08/20 03:45:23;;;;;;;;;3.25;2.25;;;;;18.02;77.05;101329.59;5093381;28;45078;-91
2022/08/20 03:47:50;;;;;;;;;3.00;2.00;;;;;18.06;77.00;101343.84;5093181;27;44949;-91
2022/08/20 03:50:19;;;;;;;;;2.25;1.50;;;;;17.97;76.91;101322.44;5092825;27;45743;-91
2022/08/20 03:52:44;;;;;;;;;4.50;3.50;;;;;17.77;76.72;101301.78;5091573;27;45601;-90
2022/08/20 03:55:10;;;;;;;;;3.00;2.50;;;;;17.82;76.52;101311.59;5092411;27;45054;-90
2022/08/20 03:57:44;;;;;;;;;3.00;3.00;;;;;17.78;77.01;101316.88;5088027;27;45264;-87
2022/08/20 04:00:11;;;;;;;;;2.25;1.75;;;;;17.67;76.53;101302.47;5107130;27;46744;-87
2022/08/20 04:02:37;;;;;;;;;3.50;2.50;;;;;17.81;77.19;101334.63;5105744;27;45275;-87
2022/08/20 04:05:02;;;;;;;;;3.25;1.50;;;;;17.72;76.83;101330.03;5087206;27;45001;-85
2022/08/20 04:07:28;;;;;;;;;4.00;3.00;;;;;17.47;76.88;101288.91;5087404;27;45557;-84
2022/08/20 04:09:54;;;;;;;;;3.00;3.00;;;;;17.87;76.88;101355.97;5089833;27;45524;-91
2022/08/20 04:12:22;;;;;;;;;4.25;2.25;;;;;17.87;76.93;101353.31;5089414;28;45559;-87
2022/08/20 04:14:48;;;;;;;;;1.75;1.75;;;;;17.86;76.91;101356.84;5104185;27;45086;-85
2022/08/20 04:17:13;;;;;;;;;3.75;3.25;;;;;17.85;77.18;101359.50;5086922;27;45251;-85
2022/08/20 04:19:39;;;;;;;;;2.00;2.00;;;;;17.78;77.22;101347.88;5089064;27;45150;-85
2022/08/20 04:22:06;;;;;;;;;3.25;2.50;;;;;17.76;76.96;101357.59;5086748;27;45524;-91
2022/08/20 04:24:33;;;;;;;;;2.25;2.25;;;;;17.76;77.17;101357.59;5090302;27;44908;-89
2022/08/20 04:27:01;;;;;;;;;1.50;1.50;;;;;17.70;77.54;101352.16;5105035;27;44997;-84
2022/08/20 04:29:27;;;;;;;;;3.50;3.50;;;;;17.75;77.03;101366.44;5092007;28;45956;-87
2022/08/20 04:31:52;;;;;;;;;3.25;2.25;;;;;17.52;77.26;101323.53;5090884;27;45040;-88
2022/08/20 04:34:18;;;;;;;;;3.00;3.00;;;;;17.71;77.27;101361.91;5105902;27;45063;-88
2022/08/20 04:36:46;;;;;;;;;3.00;3.00;;;;;17.45;77.31;101316.34;5085353;27;45148;-84
2022/08/20 04:39:12;;;;;;;;;3.00;2.50;;;;;17.49;77.06;101326.16;5084405;28;45352;-89
2022/08/20 04:41:37;;;;;;;;;4.00;3.50;;;;;17.37;77.24;101315.31;5084733;27;45330;-89
2022/08/20 04:44:03;;;;;;;;;3.00;3.00;;;;;17.56;77.27;101340.41;5105705;27;44967;-85
2022/08/20 04:46:31;;;;;;;;;4.50;3.25;;;;;17.33;77.36;101301.06;5086813;27;45324;-85
2022/08/20 04:48:57;;;;;;;;;5.00;4.75;;;;;17.64;77.09;101366.25;5093718;27;45328;-88
2022/08/20 04:51:24;;;;;;;;;4.00;4.00;;;;;17.42;77.23;101329.56;5088189;27;45351;-86
2022/08/20 04:53:52;;;;;;;;;3.00;3.00;;;;;17.35;77.05;101320.63;5089671;27;45400;-85
2022/08/20 04:56:22;;;;;;;;;3.75;3.25;;;;;17.43;77.63;101340.22;5106933;27;45329;-84
2022/08/20 04:58:47;;;;;;;;;2.00;2.00;;;;;17.53;77.34;101357.19;5106338;27;47507;-90
2022/08/20 05:01:13;;;;;;;;;4.50;3.75;;;;;17.57;77.45;101367.00;5103408;27;44919;-89
2022/08/20 05:03:39;;;;;;;;;2.50;2.50;;;;;17.27;77.18;101320.47;5093265;27;44998;-90
2022/08/20 05:06:08;;;;;;;;;3.00;2.25;;;;;17.45;77.44;101362.41;5091822;27;45209;-91
2022/08/20 05:08:35;;;;;;;;;3.75;3.75;;;;;17.51;77.30;101382.88;5091974;27;45382;-87
2022/08/20 05:11:01;;;;;;;;;4.50;4.00;;;;;17.19;77.90;101324.78;5086887;28;45402;-90
2022/08/20 05:13:27;;;;;;;;;4.00;3.00;;;;;17.31;77.64;101357.72;5111122;27;45228;-91
2022/08/20 05:15:53;;;;;;;;;3.75;3.25;;;;;17.48;77.63;101385.47;5090870;27;44994;-86
2022/08/20 05:18:21;;;;;;;;;4.00;3.50;;;;;17.46;77.94;101385.44;5093065;27;46333;-87
2022/08/20 05:20:47;;;;;;;;;4.00;3.00;;;;;17.47;78.03;101387.22;5089803;28;45478;-89
2022/08/20 05:23:15;;;;;;;;;3.00;2.00;;;;;17.32;77.83;101356.84;5092984;27;45282;-88
2022/08/20 05:25:42;;;;;;;;;2.00;2.00;;;;;17.47;78.25;101384.56;5089762;27;45367;-89
2022/08/20 05:28:11;;;;;;;;;4.25;3.00;;;;;17.48;77.88;101396.97;5088853;27;45350;-88
2022/08/20 05:30:41;;;;;;;;;4.00;3.75;;;;;17.41;77.72;101387.13;5087844;27;45745;-86
2022/08/20 05:33:08;;;;;;;;;5.50;4.00;;;;;17.49;77.78;101393.47;5091641;27;45071;-83
2022/08/20 05:35:37;;;;;;;;;4.00;4.00;;;;;17.54;77.49;101397.13;5086587;27;45307;-91
2022/08/20 05:38:04;;;;;;;;;3.00;3.00;;;;;17.31;77.70;101350.66;5088061;27;46193;-92
2022/08/20 05:40:29;;;;;;;;;5.00;4.00;;;;;17.36;77.46;101354.28;5084840;27;45576;-89
2022/08/20 05:42:55;;;;;;;;;3.00;2.25;;;;;17.33;77.59;101354.22;5087796;27;45306;-91
2022/08/20 05:45:20;;;;;;;;;4.00;4.00;;;;;17.66;77.38;101404.38;5088190;28;45037;-92
2022/08/20 05:47:47;;;;;;;;;5.75;4.00;;;;;17.36;77.30;101346.31;5089954;28;45425;-89
2022/08/20 05:50:14;;;;;;;;;6.50;5.50;;;;;17.67;77.26;101391.97;5088899;28;45341;-90
2022/08/20 05:52:41;;;;;;;;;3.50;3.50;;;;;17.74;77.51;101402.78;5087730;28;45354;-90
2022/08/20 05:55:09;;;;;;;;;5.50;5.50;;;;;17.76;77.24;101402.78;5092350;28;45217;-91
2022/08/20 05:57:35;;;;;;;;;4.00;3.75;;;;;17.41;77.08;101344.63;5089994;27;46708;-88
2022/08/20 06:00:05;;;;;;;;;5.00;4.00;;;;;17.81;77.21;101411.75;5105595;27;45533;-88
2022/08/20 06:05:14;;;;;;;;;3.25;3.00;;;;;17.76;77.35;101409.00;5087148;28;45506;-84
2022/08/20 06:07:40;;;;;;;;;4.50;3.00;;;;;17.68;77.55;101384.00;5092418;28;45191;-90
2022/08/20 06:10:07;;;;;;;;;5.00;4.00;;;;;17.76;76.93;101403.69;5090146;27;44896;-85
2022/08/20 06:12:33;;;;;;;;;3.00;3.00;;;;;17.74;77.16;101389.50;5090023;27;45451;-88
2022/08/20 06:14:59;;;;;;;;;2.50;2.50;;;;;17.70;77.05;101376.97;5092494;27;45095;-86
2022/08/20 06:17:24;;;;;;;;;3.00;3.00;;;;;17.97;76.96;101416.41;5100320;27;47961;-89
2022/08/20 06:19:49;;;;;;;;;2.33;2.33;;;;;18.04;77.11;101420.09;5107793;27;51789;-87
2022/08/20 06:22:16;;;;;;;;;5.00;3.50;;;;;18.08;76.60;101424.59;5088531;27;45333;-90
2022/08/20 06:24:41;;;;;;;;;3.25;3.00;;;;;17.94;76.01;101389.78;5088013;28;45257;-88
2022/08/20 06:27:07;;;;;;;;;2.75;2.00;;;;;18.04;76.20;101410.34;5086915;27;45311;-88
2022/08/20 06:29:34;;;;;;;;;1.75;1.75;;;;;18.00;75.65;101407.59;5090501;27;45339;-90
2022/08/20 06:32:00;;;;;;;;;5.25;3.50;;;;;17.97;75.53;101400.47;5101583;27;45580;-86
2022/08/20 06:34:27;;;;;;;;;2.50;2.00;;;;;18.14;75.77;101421.13;5106315;27;45316;-89
2022/08/20 06:36:53;;;;;;;;;3.75;3.50;;;;;18.02;75.43;101398.75;5086584;27;47110;-89
2022/08/20 06:39:19;;;;;;;;;3.00;2.50;;;;;17.94;75.69;101384.47;5086577;27;45306;-89
2022/08/20 06:41:44;;;;;;;;;5.00;3.75;;;;;18.02;75.89;101387.22;5098139;27;44817;-91
2022/08/20 06:44:10;;;;;;;;;4.75;3.25;;;;;17.97;75.33;101384.50;5107419;27;45424;-91
2022/08/20 06:46:36;;;;;;;;;2.50;2.25;;;;;18.16;75.51;101403.38;5090879;28;45733;-87
2022/08/20 06:49:06;;;;;;;;;3.50;3.50;;;;;18.04;75.74;101378.41;5088592;28;45269;-89
2022/08/20 06:51:33;;;;;;;;;3.75;2.50;;;;;18.29;75.44;101424.00;5092655;27;45197;-85
2022/08/20 06:53:58;;;;;;;;;5.00;4.25;;;;;18.30;75.40;101420.44;5093460;27;45068;-90
2022/08/20 06:56:24;;;;;;;;;4.00;3.50;;;;;18.20;75.49;101402.56;5084401;27;46361;-91
2022/08/20 06:58:49;;;;;;;;;3.75;3.00;;;;;18.16;75.30;101388.31;5126720;27;45036;-87
2022/08/20 07:01:19;;;;;;;;;5.25;3.25;;;;;18.22;75.39;101387.50;5086765;27;45772;-88
2022/08/20 07:03:45;;;;;;;;;4.00;3.00;;;;;18.23;75.90;101386.66;5093705;28;44874;-91
2022/08/20 07:06:10;;;;;;;;;4.25;4.00;;;;;18.39;75.12;101404.59;5091645;27;45294;-89
2022/08/20 07:08:36;;;;;;;;;6.25;5.75;;;;;18.37;75.31;101395.69;5091851;27;45121;-90
2022/08/20 07:11:01;;;;;;;;;6.50;5.50;;;;;18.54;75.32;101423.44;5088067;27;45194;-88
2022/08/20 07:13:27;;;;;;;;;9.50;9.00;;;;;18.29;75.43;101373.44;5093726;27;44923;-88
2022/08/20 07:15:54;;;;;;;;;8.00;8.00;;;;;18.44;75.37;101383.38;5103024;27;47047;-90
2022/08/20 07:18:21;;;;;;;;;4.00;3.50;;;;;18.68;75.20;101413.00;5093113;27;45115;-88
2022/08/20 07:20:46;;;;;;;;;3.75;3.00;;;;;18.61;75.20;101396.88;5122231;27;45138;-88
2022/08/20 07:23:12;;;;;;;;;6.00;5.25;;;;;18.72;75.19;101401.50;5090783;27;44995;-90
2022/08/20 07:25:40;;;;;;;;;2.00;2.00;;;;;18.79;74.80;101400.69;5104447;27;47452;-88
2022/08/20 07:28:13;;;;;;;;;3.25;3.00;;;;;18.89;75.03;101407.00;5089639;27;45143;-86
2022/08/20 07:33:27;;;;;;;;;4.50;3.75;;;;;19.03;74.76;101418.72;5090909;28;45141;-90
2022/08/20 07:35:53;;;;;;;;;3.25;2.50;;;;;19.05;74.46;101414.28;5090717;28;47510;-89
2022/08/20 07:38:24;;;;;;;;;5.00;4.00;;;;;19.00;74.75;101405.34;5092797;27;45014;-91
2022/08/20 07:40:52;;;;;;;;;3.00;2.00;;;;;18.95;75.17;101393.75;5086036;28;44989;-87
2022/08/20 07:43:18;;;;;;;;;2.25;1.75;;;;;18.88;75.47;101369.72;5089111;28;45520;-91
2022/08/20 07:45:44;;;;;;;;;2.75;2.25;;;;;19.14;74.53;101404.63;5084665;27;45345;-92
2022/08/20 07:48:12;;;;;;;;;3.00;2.00;;;;;19.28;74.91;101422.53;5089116;27;45637;-92
2022/08/20 07:50:38;;;;;;;;;2.75;2.25;;;;;19.34;75.28;101424.34;5093133;27;45225;-92
2022/08/20 07:53:04;;;;;;;;;4.50;3.75;;;;;19.26;74.87;101407.38;5104272;27;45190;-90
2022/08/20 07:55:30;;;;;;;;;4.75;4.00;;;;;19.40;75.05;101429.72;5106854;27;47218;-89
2022/08/20 07:57:57;;;;;;;;;3.75;2.00;;;;;19.49;75.19;101427.16;5108076;27;45404;-91
2022/08/20 08:00:24;;;;;;;;;3.50;2.50;;;;;19.56;75.12;101431.69;5091991;27;44921;-90
2022/08/20 08:02:50;;;;;;;;;2.75;2.00;;;;;19.63;74.86;101435.31;5089587;28;45105;-89
2022/08/20 08:05:17;;;;;;;;;3.25;2.25;;;;;19.62;74.47;101420.19;5092616;27;45154;-90
2022/08/20 08:07:43;;;;;;;;;5.00;4.50;;;;;19.63;74.20;101423.75;5107861;27;45527;-90
2022/08/20 08:10:12;;;;;;;;;3.75;3.00;;;;;19.57;74.40;101403.25;5089895;27;45004;-90
2022/08/20 08:12:47;;;;;;;;;3.25;2.75;;;;;19.63;73.98;101402.44;5089022;27;45280;-89
2022/08/20 08:15:17;;;;;;;;;3.75;3.00;;;;;19.59;74.44;101399.72;5121898;27;47798;-90
2022/08/20 08:17:47;;;;;;;;;3.25;3.25;;;;;19.61;73.95;101385.53;5101426;27;45406;-91
2022/08/20 08:20:13;;;;;;;;;2.00;2.00;;;;;19.71;74.53;101398.06;5092088;27;45188;-88
2022/08/20 08:22:42;;;;;;;;;4.00;3.00;;;;;19.79;74.22;101401.66;5086822;27;45512;-91
2022/08/20 08:25:10;;;;;;;;;5.75;3.75;;;;;20.06;73.93;101438.31;5107538;27;47696;-89
2022/08/20 08:27:35;;;;;;;;;4.00;3.00;;;;;19.97;73.97;101420.47;5090728;28;45138;-91
2022/08/20 08:30:02;;;;;;;;;8.25;4.75;;;;;20.16;73.48;101436.59;5105997;27;44942;-91
2022/08/20 08:32:30;;;;;;;;;3.00;2.75;;;;;20.08;73.97;101420.53;5090157;27;44936;-91
2022/08/20 08:34:56;;;;;;;;;3.50;3.00;;;;;20.09;73.63;101412.53;5088157;27;45410;-90
2022/08/20 08:37:22;;;;;;;;;4.00;3.75;;;;;20.18;73.05;101426.81;5087684;27;45468;-90
2022/08/20 08:39:47;;;;;;;;;2.25;2.25;;;;;20.32;72.66;101441.16;5091036;27;45241;-91
2022/08/20 08:42:27;;;;;;;;;2.50;2.00;;;;;20.39;72.49;101442.94;5084961;28;45066;-90
2022/08/20 08:44:53;;;;;;;;;3.00;3.00;;;;;20.27;72.55;101400.19;5090502;28;46977;-90
2022/08/20 08:47:33;;;;;;;;;3.25;2.00;;;;;20.56;72.29;101443.97;5102642;27;45519;-92
2022/08/20 08:50:00;;;;;;;;;6.00;3.75;;;;;20.43;70.74;101402.03;5104555;27;45509;-88
2022/08/20 08:52:31;;;;;;;;;2.00;2.00;;;;;20.65;70.98;101421.75;5090904;28;44860;-89
2022/08/20 08:55:00;;;;;;;;;5.25;2.50;;;;;20.71;70.57;101428.91;5090116;28;47061;-90
2022/08/20 08:57:27;;;;;;;;;2.75;1.75;;;;;20.61;70.43;101406.59;5087380;28;45315;-88
2022/08/20 09:00:01;;;;;;;;;3.00;2.00;;;;;20.84;70.04;101436.09;5091812;27;44990;-89
2022/08/20 09:02:29;;;;;;;;;1.50;1.25;;;;;20.79;68.98;101420.03;5091521;27;45093;-89
2022/08/20 09:04:59;;;;;;;;;2.50;2.00;;;;;20.84;68.89;101431.63;5108081;27;47351;-90
2022/08/20 09:07:30;;;;;;;;;3.75;3.50;;;;;20.78;68.53;101418.22;5090868;27;45214;-89
2022/08/20 09:09:55;;;;;;;;;3.25;2.00;;;;;20.96;68.26;101444.13;5107440;27;45051;-90
2022/08/20 09:12:23;;;;;;;;;2.50;2.00;;;;;21.12;68.07;101431.69;5104538;27;45116;-90
2022/08/20 09:14:50;;;;;;;;;3.25;2.50;;;;;21.10;67.82;101404.09;5089362;27;45556;-87
2022/08/20 09:17:17;;;;;;;;;2.00;2.00;;;;;21.35;67.59;101437.13;5100610;27;45334;-89
2022/08/20 09:19:43;;;;;;;;;3.25;3.00;;;;;21.23;66.74;101413.00;5086912;28;45010;-87
2022/08/20 09:22:14;;;;;;;;;2.50;2.00;;;;;21.22;66.82;101417.44;5090501;27;44908;-90
2022/08/20 09:24:41;;;;;;;;;2.50;2.50;;;;;21.20;66.68;101434.41;5091370;27;45853;-86
2022/08/20 09:27:06;;;;;;;;;4.75;3.50;;;;;21.11;66.20;101425.47;5086939;28;45027;-88
2022/08/20 09:29:31;;;;;;;;;1.75;1.25;;;;;20.95;65.94;101393.38;5091088;28;44964;-85
2022/08/20 09:32:09;;;;;;;;;2.00;2.00;;;;;21.17;64.39;101421.00;5104083;27;45576;-88
2022/08/20 09:34:39;;;;;;;;;3.00;2.75;;;;;21.29;65.25;101432.63;5094910;27;45527;-88
2022/08/20 09:37:05;;;;;;;;;4.00;3.00;;;;;21.26;65.17;101405.00;5093140;28;45110;-86
2022/08/20 09:39:30;;;;;;;;;3.00;2.00;;;;;21.45;64.17;101414.84;5109204;27;45022;-86
2022/08/20 09:42:07;;;;;;;;;2.50;2.00;;;;;21.66;64.12;101423.78;5091573;27;45347;-88
2022/08/20 09:44:32;;;;;;;;;1.25;1.00;;;;;21.50;63.60;101401.47;5092516;28;45405;-89
2022/08/20 09:46:57;;;;;;;;;1.50;1.50;;;;;21.69;63.29;101430.03;5094884;27;44940;-86
2022/08/20 09:49:23;;;;;;;;;1.75;1.75;;;;;21.34;62.38;101372.06;5108153;27;45447;-85
2022/08/20 09:51:48;;;;;;;;;5.50;4.25;;;;;21.53;62.92;101399.72;5108122;27;45259;-91
2022/08/20 09:54:13;;;;;;;;;2.00;2.00;;;;;21.58;62.60;101399.72;5094798;27;45128;-92
2022/08/20 09:56:39;;;;;;;;;2.75;2.25;;;;;21.77;62.61;101433.59;5091369;27;45320;-89
2022/08/20 09:59:04;;;;;;;;;4.50;3.00;;;;;21.71;62.48;101414.84;5095334;27;44965;-91
2022/08/20 10:01:30;;;;;;;;;3.25;3.25;;;;;21.67;62.02;101401.47;5087443;27;45252;-90
2022/08/20 10:03:55;;;;;;;;;4.25;3.00;;;;;21.62;61.61;101386.34;5095360;28;45876;-90
2022/08/20 10:06:20;;;;;;;;;3.50;2.50;;;;;21.91;61.96;101417.50;5092660;28;53149;-89
2022/08/20 10:08:47;;;;;;;;;3.50;3.50;;;;;22.10;61.51;101419.25;5110416;27;44933;-91
2022/08/20 10:11:12;;;;;;;;;3.75;3.00;;;;;22.02;60.92;101385.34;5091542;28;45322;-90
2022/08/20 10:13:38;;;;;;;;;3.50;3.50;;;;;22.24;61.29;101421.06;5110026;27;47798;-89
2022/08/20 10:16:04;;;;;;;;;4.25;2.75;;;;;22.07;61.40;101380.91;5092166;27;45472;-90
2022/08/20 10:18:29;;;;;;;;;4.50;3.25;;;;;22.03;60.70;101355.94;5094633;28;45030;-89
2022/08/20 10:20:54;;;;;;;;;3.50;3.50;;;;;22.20;60.03;101371.06;5092793;28;54104;-91
2022/08/20 10:23:19;;;;;;;;;3.25;2.75;;;;;22.12;59.74;101350.59;5094307;27;45371;-89
2022/08/20 10:25:45;;;;;;;;;3.25;2.75;;;;;22.42;60.32;101386.19;5106460;27;45104;-82
2022/08/20 10:28:10;;;;;;;;;4.00;2.75;;;;;22.49;59.75;101369.19;5094399;27;45119;-90
2022/08/20 10:30:36;;;;;;;;;3.00;2.00;;;;;22.79;59.04;101411.00;5093456;27;44901;-90
2022/08/20 10:33:01;;;;;;;;;3.25;3.25;;;;;22.86;59.01;101399.38;5109785;27;47453;-91
2022/08/20 10:35:27;;;;;;;;;4.50;3.50;;;;;22.87;58.70;101392.22;5109979;27;45366;-86
2022/08/20 10:37:52;;;;;;;;;3.00;3.00;;;;;22.91;58.23;101400.28;5110320;27;45152;-91
2022/08/20 10:40:18;;;;;;;;;4.00;4.00;;;;;22.76;57.53;101357.44;5108291;27;45170;-88
2022/08/20 10:42:43;;;;;;;;;2.00;2.00;;;;;22.88;58.13;101383.28;5102867;27;45335;-85
2022/08/20 10:45:10;;;;;;;;;3.50;2.75;;;;;22.79;57.71;101368.13;5122678;27;44814;-88
2022/08/20 10:47:36;;;;;;;;;3.75;3.75;;;;;22.88;57.59;101396.69;5107717;27;44738;-89
2022/08/20 10:50:04;;;;;;;;;4.00;3.75;;;;;22.92;56.67;101398.47;5118607;27;53248;-90
2022/08/20 10:52:30;;;;;;;;;3.00;2.50;;;;;22.95;57.25;101398.44;5100733;28;47183;-90
2022/08/20 10:54:56;;;;;;;;;3.00;3.00;;;;;22.98;56.57;101393.06;5109942;27;45135;-89
2022/08/20 10:57:25;;;;;;;;;3.00;2.50;;;;;23.04;57.06;101398.38;5092098;27;44953;-90
2022/08/20 10:59:52;;;;;;;;;3.00;3.00;;;;;23.07;57.37;101402.84;5094384;27;45336;-91
2022/08/20 11:02:18;;;;;;;;;2.25;1.50;;;;;22.92;56.32;101377.91;5093969;27;45648;-91
2022/08/20 11:04:43;;;;;;;;;4.25;4.00;;;;;23.01;56.65;101393.06;5107466;27;45650;-90
2022/08/20 11:07:22;;;;;;;;;3.00;2.25;;;;;23.03;56.20;101393.94;5109387;27;45014;-89
2022/08/20 11:09:48;;;;;;;;;3.00;2.00;;;;;22.99;55.84;101373.41;5109335;27;45127;-88
2022/08/20 11:12:16;;;;;;;;;3.00;2.00;;;;;23.28;55.42;101391.97;5088514;28;45424;-88
2022/08/20 11:14:41;;;;;;;;;3.00;3.00;;;;;23.26;55.80;101377.69;5092140;27;45362;-92
2022/08/20 11:17:07;;;;;;;;;3.00;3.00;;;;;23.22;55.68;101359.84;5107920;27;44941;-91
2022/08/20 11:19:37;;;;;;;;;4.25;3.00;;;;;23.38;54.77;101387.44;5093216;27;49775;-90
2022/08/20 11:22:03;;;;;;;;;4.00;3.00;;;;;23.57;55.41;101396.22;5093092;27;45169;-89
2022/08/20 11:24:28;;;;;;;;;3.00;3.00;;;;;23.77;55.53;101401.44;5107276;27;45157;-89
2022/08/20 11:26:53;;;;;;;;;3.00;3.00;;;;;23.95;53.88;101385.16;5088324;27;45306;-90
2022/08/20 11:29:21;;;;;;;;;2.75;2.75;;;;;24.09;54.71;101364.41;5092866;27;45092;-88
2022/08/20 11:31:46;;;;;;;;;3.00;3.00;;;;;24.09;53.98;101361.75;5090963;27;45625;-91